Terminal Aerodrome Forecast
Issued by NWS Omaha/Valley, NE

Home | Current Version | Previous Version | Text Only | Print | Product List | Glossary On
Versions: 1 2 3 4 5 6 7 8 9 10 11 12 13 14 15 16 17 18 19 20 21 22 23 24 25
000
FTUS43 KOAX 291120
TAFOFK
TAF
KOFK 291120Z 2912/3012 33024G32KT P6SM OVC018
     FM291900 33018G25KT P6SM SCT025
     FM292300 34010KT P6SM SKC
     FM300200 VRB04KT P6SM SKC=

USA.gov is the U.S. government's official web portal to all federal, state and local government web resources and services.